createdAt,value
2023-02-19T00:03:26.099Z,2.50
2023-02-19T00:08:31.298Z,2.00
2023-02-19T00:13:38.027Z,1.52
2023-02-19T00:18:41.064Z,3.15
2023-02-19T00:23:43.614Z,3.33
2023-02-19T00:28:47.410Z,3.10
2023-02-19T00:33:52.542Z,2.92
2023-02-19T00:38:55.098Z,3.38
2023-02-19T00:43:59.897Z,3.15
2023-02-19T00:49:03.143Z,3.78
2023-02-19T00:54:06.464Z,4.07
2023-02-19T00:59:09.016Z,4.50
2023-02-19T01:04:11.915Z,3.45
2023-02-19T01:09:14.844Z,5.15
2023-02-19T01:14:17.299Z,5.80
2023-02-19T01:19:20.602Z,6.15
2023-02-19T01:24:23.031Z,5.15
2023-02-19T01:29:25.475Z,6.32
2023-02-19T01:34:30.395Z,5.55
2023-02-19T01:39:32.911Z,6.35
2023-02-19T01:44:35.199Z,5.90
2023-02-19T01:49:49.009Z,4.55
2023-02-19T01:54:53.476Z,4.07
2023-02-19T02:00:02.434Z,4.95
2023-02-19T02:05:50.918Z,3.88
2023-02-19T02:10:54.256Z,3.33
2023-02-19T02:16:02.606Z,2.97
2023-02-19T02:21:36.080Z,3.90
2023-02-19T02:26:51.235Z,2.90
2023-02-19T02:32:08.102Z,3.30
2023-02-19T02:37:12.510Z,3.90
2023-02-19T02:42:30.323Z,3.97
2023-02-19T02:47:48.225Z,3.83
2023-02-19T02:58:15.529Z,3.47
2023-02-19T03:03:22.576Z,3.03
2023-02-19T03:08:31.552Z,3.17
2023-02-19T03:13:57.600Z,3.38
2023-02-19T03:19:19.483Z,2.90
2023-02-19T03:24:50.230Z,3.65
2023-02-19T03:29:57.378Z,4.40
2023-02-19T03:35:10.233Z,4.28
2023-02-19T03:40:14.142Z,4.57
2023-02-19T03:45:57.184Z,4.22
2023-02-19T03:51:06.969Z,4.68
2023-02-19T03:56:31.228Z,5.30
2023-02-19T04:01:46.319Z,5.18
2023-02-19T04:06:55.100Z,5.70
2023-02-19T04:11:58.894Z,5.13
2023-02-19T04:17:05.634Z,5.25
2023-02-19T04:22:10.005Z,5.25
2023-02-19T04:27:12.786Z,4.82
2023-02-19T04:32:15.426Z,4.03
2023-02-19T04:37:17.878Z,4.45
2023-02-19T04:42:20.191Z,4.78
2023-02-19T04:47:22.714Z,4.47
2023-02-19T04:52:25.097Z,5.20
2023-02-19T04:57:27.809Z,4.10
2023-02-19T05:02:30.181Z,4.43
2023-02-19T05:07:32.797Z,4.68
2023-02-19T05:12:35.199Z,4.32
2023-02-19T05:17:38.092Z,4.40
2023-02-19T05:22:40.432Z,4.93
2023-02-19T05:27:42.913Z,4.82
2023-02-19T05:32:45.303Z,5.03
2023-02-19T05:37:47.732Z,5.30
2023-02-19T05:42:50.160Z,4.95
2023-02-19T05:47:52.540Z,5.57
2023-02-19T05:52:54.904Z,5.05
2023-02-19T05:57:57.241Z,5.68
2023-02-19T06:02:59.772Z,5.38
2023-02-19T06:08:02.178Z,6.25
2023-02-19T06:13:04.600Z,6.40
2023-02-19T06:18:07.012Z,6.85
2023-02-19T06:23:09.440Z,6.25
2023-02-19T06:28:11.794Z,7.65
2023-02-19T06:33:15.686Z,7.40
2023-02-19T06:38:18.147Z,6.70
2023-02-19T06:43:20.533Z,8.18
2023-02-19T06:48:22.960Z,8.10
2023-02-19T06:53:25.861Z,7.43
2023-02-19T06:58:28.611Z,7.93
2023-02-19T07:03:31.121Z,8.52
2023-02-19T07:08:33.653Z,8.90
2023-02-19T07:13:36.074Z,7.43
2023-02-19T07:18:39.735Z,8.25
2023-02-19T07:23:43.168Z,7.95
2023-02-19T07:28:47.054Z,7.53
2023-02-19T07:33:50.406Z,6.38
2023-02-19T07:38:57.328Z,6.45
2023-02-19T07:43:59.787Z,7.30
2023-02-19T07:49:02.186Z,7.22
2023-02-19T07:54:04.652Z,7.28
2023-02-19T07:59:07.058Z,6.75
2023-02-19T08:04:10.738Z,6.95
2023-02-19T08:09:13.126Z,6.05
2023-02-19T08:14:15.605Z,6.07
2023-02-19T08:19:18.113Z,7.07
2023-02-19T08:24:20.527Z,5.65
2023-02-19T08:29:23.083Z,7.05
2023-02-19T08:34:25.558Z,7.05
2023-02-19T08:39:28.024Z,7.03
2023-02-19T08:44:30.401Z,6.00
2023-02-19T08:49:32.824Z,7.13
2023-02-19T08:54:37.226Z,6.95
2023-02-19T08:59:39.705Z,5.97
2023-02-19T09:04:42.143Z,4.68
2023-02-19T09:09:44.612Z,5.30
2023-02-19T09:14:47.260Z,5.00
2023-02-19T09:19:50.885Z,4.93
2023-02-19T09:24:53.506Z,5.53
2023-02-19T09:29:55.998Z,4.82
2023-02-19T09:34:58.473Z,4.53
2023-02-19T09:40:00.895Z,4.70
2023-02-19T09:45:05.402Z,4.10
2023-02-19T09:50:10.376Z,4.90
2023-02-19T09:55:36.631Z,4.35
2023-02-19T10:00:40.274Z,4.47
2023-02-19T10:05:43.278Z,4.00
2023-02-19T10:10:45.821Z,3.45
2023-02-19T10:15:52.195Z,3.65
2023-02-19T10:20:56.288Z,3.33
2023-02-19T10:26:00.474Z,3.58
2023-02-19T10:31:07.700Z,3.22
2023-02-19T10:36:41.966Z,3.25
2023-02-19T10:41:44.551Z,3.03
2023-02-19T10:46:50.680Z,3.30
2023-02-19T10:51:55.841Z,3.25
2023-02-19T10:57:21.392Z,3.15
2023-02-19T11:02:24.503Z,3.30
2023-02-19T11:07:26.918Z,3.03
2023-02-19T11:12:33.764Z,3.03
2023-02-19T11:17:36.830Z,3.22
2023-02-19T11:22:42.339Z,3.22
2023-02-19T11:28:05.151Z,3.60
2023-02-19T11:33:16.734Z,3.78
2023-02-19T11:38:21.102Z,3.92
2023-02-19T11:43:50.126Z,3.78
2023-02-19T11:48:56.428Z,3.55
2023-02-19T11:54:05.168Z,3.88
2023-02-19T11:59:36.662Z,3.35
2023-02-19T12:04:48.016Z,4.75
2023-02-19T12:10:28.898Z,3.83
2023-02-19T12:15:50.112Z,4.45
2023-02-19T12:21:26.317Z,3.80
2023-02-19T12:26:56.590Z,4.20
2023-02-19T12:32:27.363Z,3.60
2023-02-19T12:37:45.525Z,4.10
2023-02-19T12:43:20.586Z,4.03
2023-02-19T12:48:53.701Z,3.83
2023-02-19T12:54:06.502Z,4.07
2023-02-19T12:59:36.986Z,3.75
2023-02-19T13:09:52.273Z,3.60
2023-02-19T13:15:00.156Z,3.63
2023-02-19T13:20:14.344Z,4.53
2023-02-19T13:25:19.520Z,5.57
2023-02-19T13:35:42.190Z,4.43
2023-02-19T13:40:56.085Z,4.07
2023-02-19T13:46:03.006Z,4.22
2023-02-19T13:51:26.452Z,3.97
2023-02-19T13:56:31.869Z,3.63
2023-02-19T14:01:56.195Z,3.88
2023-02-19T14:07:04.981Z,4.18
2023-02-19T14:12:15.455Z,4.13
2023-02-19T14:17:29.059Z,3.65
2023-02-19T14:22:51.603Z,3.78
2023-02-19T14:28:16.069Z,3.97
2023-02-19T14:33:22.785Z,3.80
2023-02-19T14:38:27.731Z,4.00
2023-02-19T14:43:31.665Z,3.50
2023-02-19T14:48:39.983Z,3.70
2023-02-19T14:53:45.172Z,3.83
2023-02-19T15:04:25.945Z,3.92
2023-02-19T15:09:35.717Z,3.60
2023-02-19T15:14:40.466Z,3.92
2023-02-19T15:19:44.375Z,3.83
2023-02-19T15:24:48.673Z,3.85
2023-02-19T15:29:53.857Z,3.33
2023-02-19T15:34:59.165Z,3.28
2023-02-19T15:40:07.897Z,2.33
2023-02-19T15:45:16.070Z,3.67
2023-02-19T15:50:31.893Z,4.65
2023-02-19T15:55:40.283Z,3.88
2023-02-19T16:00:52.129Z,4.10
2023-02-19T16:11:23.373Z,2.75
2023-02-19T16:16:31.524Z,3.50
2023-02-19T16:21:34.308Z,4.35
2023-02-19T16:26:44.759Z,4.32
2023-02-19T16:31:50.988Z,4.43
2023-02-19T16:36:53.496Z,4.43
2023-02-19T16:42:12.862Z,3.78
2023-02-19T16:47:21.045Z,4.68
2023-02-19T16:52:23.710Z,5.47
2023-02-19T16:57:26.183Z,4.78
2023-02-19T17:02:28.622Z,4.65
2023-02-19T17:07:31.052Z,4.82
2023-02-19T17:12:33.494Z,5.88
2023-02-19T17:17:36.156Z,5.78
2023-02-19T17:22:38.967Z,5.18
2023-02-19T17:27:41.653Z,5.70
2023-02-19T17:32:44.759Z,6.25
2023-02-19T17:37:47.272Z,5.57
2023-02-19T17:42:50.291Z,5.25
2023-02-19T17:47:53.417Z,4.35
2023-02-19T17:52:56.005Z,5.15
2023-02-19T17:57:58.454Z,5.68
2023-02-19T18:03:01.030Z,5.10
2023-02-19T18:08:03.768Z,4.85
2023-02-19T18:13:06.399Z,5.38
2023-02-19T18:18:10.124Z,4.88
2023-02-19T18:23:12.615Z,6.25
2023-02-19T18:28:15.696Z,4.85
2023-02-19T18:33:18.288Z,4.95
2023-02-19T18:38:21.251Z,3.42
2023-02-19T18:43:23.851Z,6.55
2023-02-19T18:48:26.251Z,6.13
2023-02-19T18:53:30.421Z,6.30
2023-02-19T18:58:33.715Z,6.00
2023-02-19T19:03:36.180Z,6.05
2023-02-19T19:08:38.681Z,4.88
2023-02-19T19:13:41.253Z,5.72
2023-02-19T19:18:43.624Z,5.35
2023-02-19T19:23:46.582Z,5.18
2023-02-19T19:28:48.977Z,4.63
2023-02-19T19:33:52.200Z,5.43
2023-02-19T19:38:54.663Z,4.70
2023-02-19T19:43:57.566Z,4.60
2023-02-19T19:49:00.117Z,4.95
2023-02-19T19:54:04.447Z,5.00
2023-02-19T19:59:06.899Z,5.13
2023-02-19T20:04:09.269Z,5.25
2023-02-19T20:09:11.973Z,4.97
2023-02-19T20:14:15.264Z,4.97
2023-02-19T20:19:19.861Z,5.55
2023-02-19T20:24:29.090Z,5.57
2023-02-19T20:29:33.730Z,5.13
2023-02-19T20:34:36.780Z,5.60
2023-02-19T20:39:39.295Z,5.93
2023-02-19T20:44:42.930Z,6.03
2023-02-19T20:49:46.860Z,5.90
2023-02-19T20:54:49.271Z,6.07
2023-02-19T20:59:51.770Z,5.13
2023-02-19T21:04:54.239Z,5.93
2023-02-19T21:09:56.674Z,6.18
2023-02-19T21:14:59.076Z,6.60
2023-02-19T21:20:01.482Z,5.80
2023-02-19T21:25:05.610Z,6.93
2023-02-19T21:30:08.616Z,5.70
2023-02-19T21:35:11.272Z,6.32
2023-02-19T21:40:13.964Z,6.68
2023-02-19T21:45:16.479Z,6.15
2023-02-19T21:50:20.300Z,6.07
2023-02-19T21:55:22.661Z,6.30
2023-02-19T22:00:25.189Z,6.85
2023-02-19T22:05:27.618Z,5.53
2023-02-19T22:10:30.301Z,6.75
2023-02-19T22:15:32.645Z,6.60
2023-02-19T22:20:37.520Z,5.95
2023-02-19T22:25:39.909Z,6.70
2023-02-19T22:30:43.209Z,3.60
2023-02-19T22:35:45.602Z,7.65
2023-02-19T22:40:47.975Z,7.35
2023-02-19T22:45:50.386Z,7.10
2023-02-19T22:50:52.965Z,8.40
2023-02-19T22:55:55.466Z,7.28
2023-02-19T23:00:58.003Z,7.40
2023-02-19T23:06:04.050Z,7.30
2023-02-19T23:11:06.477Z,7.03
2023-02-19T23:16:08.909Z,5.65
2023-02-19T23:21:11.568Z,8.68
2023-02-19T23:26:16.089Z,7.28
2023-02-19T23:31:19.081Z,8.15
2023-02-19T23:36:24.088Z,8.48
2023-02-19T23:41:26.694Z,8.45
2023-02-19T23:46:29.341Z,8.30
2023-02-19T23:51:31.778Z,8.13
2023-02-19T23:56:34.834Z,8.52
